Time;durP1;ratioP1;P1;durP2;ratioP2;P2;SDS_P1;SDS_P2;PMS_P1;PMS_P2;Temp;Humidity;BMP_temperature;BMP_pressure;BME280_temperature;BME280_humidity;BME280_pressure;Samples;Min_cycle;Max_cycle;Signal;HPM_P1;HPM_P2
2022/05/30 00:01:09;;;;;;;2.00;1.55;;;17.70;99.90;;;;;;5113953;28;20412;-60
2022/05/30 00:03:35;;;;;;;2.75;1.63;;;17.60;99.90;;;;;;5114089;28;20019;-60
2022/05/30 00:06:01;;;;;;;1.42;1.23;;;17.60;99.90;;;;;;5114324;28;20035;-60
2022/05/30 00:08:26;;;;;;;2.55;1.85;;;17.50;99.90;;;;;;5114041;28;20023;-61
2022/05/30 00:10:53;;;;;;;2.22;1.73;;;17.50;99.90;;;;;;5113955;28;20386;-61
2022/05/30 00:13:18;;;;;;;1.50;1.30;;;17.50;99.90;;;;;;5113374;28;20015;-61
2022/05/30 00:15:44;;;;;;;1.35;1.10;;;17.50;99.90;;;;;;5114017;28;20419;-61
2022/05/30 00:18:11;;;;;;;1.90;1.38;;;17.50;99.90;;;;;;5113737;28;20019;-61
2022/05/30 00:20:42;;;;;;;1.55;1.25;;;17.60;99.90;;;;;;5113890;28;20020;-61
2022/05/30 00:23:07;;;;;;;1.27;1.13;;;17.60;99.90;;;;;;5113853;28;20128;-60
2022/05/30 00:25:33;;;;;;;1.77;1.08;;;17.60;99.90;;;;;;5113673;28;20427;-61
2022/05/30 00:27:59;;;;;;;2.45;1.42;;;17.60;99.90;;;;;;5114034;28;20034;-61
2022/05/30 00:30:25;;;;;;;3.35;2.17;;;17.60;99.90;;;;;;5113651;28;20362;-61
2022/05/30 00:32:50;;;;;;;3.67;2.70;;;17.60;99.90;;;;;;5113554;28;20024;-61
2022/05/30 00:35:16;;;;;;;3.67;2.88;;;17.60;99.90;;;;;;5113982;28;20024;-61
2022/05/30 00:37:42;;;;;;;5.47;3.00;;;17.50;99.90;;;;;;5113717;28;20377;-61
2022/05/30 00:40:08;;;;;;;4.43;2.95;;;17.40;99.90;;;;;;5113717;28;20062;-61
2022/05/30 00:42:34;;;;;;;4.22;2.53;;;17.20;99.90;;;;;;5113627;28;20020;-61
2022/05/30 00:45:00;;;;;;;3.45;2.30;;;17.20;99.90;;;;;;5113309;28;20019;-61
2022/05/30 00:47:25;;;;;;;2.28;1.90;;;17.30;99.90;;;;;;5113460;28;20103;-61
2022/05/30 00:49:52;;;;;;;2.63;1.63;;;17.30;99.90;;;;;;5113694;28;20063;-61
2022/05/30 00:52:37;;;;;;;5.45;2.80;;;17.40;99.90;;;;;;5113549;28;20452;-61
2022/05/30 00:55:15;;;;;;;1.80;1.50;;;17.40;99.90;;;;;;5113380;28;20035;-61
2022/05/30 00:57:43;;;;;;;2.03;1.63;;;17.30;99.90;;;;;;5113576;28;20024;-60
2022/05/30 01:00:13;;;;;;;1.95;1.50;;;17.30;99.90;;;;;;5113350;28;20101;-60
2022/05/30 01:02:40;;;;;;;3.35;2.47;;;17.30;99.90;;;;;;5113488;28;20020;-61
2022/05/30 01:07:59;;;;;;;1.90;1.50;;;17.20;99.90;;;;;;5113488;28;20093;-61
2022/05/30 01:10:25;;;;;;;2.92;1.45;;;17.20;99.90;;;;;;5113669;28;20058;-61
2022/05/30 01:12:54;;;;;;;2.00;1.60;;;17.40;99.90;;;;;;5113275;28;20427;-61
2022/05/30 01:15:30;;;;;;;2.50;2.20;;;17.40;99.90;;;;;;5113533;28;20023;-61
2022/05/30 01:18:05;;;;;;;3.67;2.40;;;17.40;99.90;;;;;;5113232;28;20016;-61
2022/05/30 01:20:39;;;;;;;2.67;2.38;;;17.40;99.90;;;;;;5113556;28;20126;-60
2022/05/30 01:23:23;;;;;;;4.70;3.08;;;17.30;99.90;;;;;;5113320;28;20501;-61
2022/05/30 01:26:26;;;;;;;4.72;3.35;;;17.30;99.90;;;;;;5116901;28;20478;-61
2022/05/30 01:29:12;;;;;;;4.43;2.83;;;17.20;99.90;;;;;;5116825;28;20023;-61
2022/05/30 01:31:38;;;;;;;3.40;2.22;;;17.20;99.90;;;;;;5116938;28;20019;-61
2022/05/30 01:34:04;;;;;;;4.05;2.90;;;17.20;99.90;;;;;;5116827;28;20024;-61
2022/05/30 01:36:34;;;;;;;5.72;3.53;;;17.10;99.90;;;;;;5117007;28;20023;-61
2022/05/30 01:39:00;;;;;;;5.10;3.25;;;17.00;99.90;;;;;;5116767;28;20153;-61
2022/05/30 01:41:26;;;;;;;3.72;2.30;;;17.00;99.90;;;;;;5117222;28;20065;-60
2022/05/30 01:43:51;;;;;;;2.17;1.88;;;17.00;99.90;;;;;;5116522;28;20427;-61
2022/05/30 01:46:21;;;;;;;2.85;2.30;;;17.10;99.90;;;;;;5116761;28;20026;-61
2022/05/30 01:48:47;;;;;;;2.80;2.60;;;17.10;99.90;;;;;;5116703;28;20026;-61
2022/05/30 01:51:15;;;;;;;2.70;2.33;;;17.10;99.90;;;;;;5116611;28;20016;-61
2022/05/30 01:53:41;;;;;;;1.92;1.70;;;17.10;99.90;;;;;;5116534;28;20031;-61
2022/05/30 01:56:07;;;;;;;2.35;1.90;;;17.10;99.90;;;;;;5116171;28;20409;-60
2022/05/30 01:58:33;;;;;;;2.40;2.20;;;17.10;99.90;;;;;;5116484;28;20024;-60
2022/05/30 02:01:12;;;;;;;2.80;1.80;;;17.10;99.90;;;;;;5116464;28;20047;-61
2022/05/30 02:03:38;;;;;;;3.20;2.25;;;17.10;99.90;;;;;;5116375;28;20020;-61
2022/05/30 02:06:04;;;;;;;2.28;2.08;;;17.20;99.90;;;;;;5116320;28;20080;-61
2022/05/30 02:08:30;;;;;;;3.22;2.10;;;17.10;99.90;;;;;;5116226;28;20023;-60
2022/05/30 02:10:55;;;;;;;3.35;2.03;;;17.00;99.90;;;;;;5116031;28;20370;-61
2022/05/30 02:13:21;;;;;;;4.43;2.42;;;17.00;99.90;;;;;;5116160;28;20063;-61
2022/05/30 02:18:32;;;;;;;2.65;1.95;;;16.40;99.90;;;;;;5116040;28;20039;-60
2022/05/30 02:20:57;;;;;;;3.55;1.98;;;16.40;99.90;;;;;;5116099;28;20020;-61
2022/05/30 02:23:23;;;;;;;2.67;1.90;;;16.60;99.90;;;;;;5115922;28;20049;-61
2022/05/30 02:25:49;;;;;;;3.40;1.60;;;16.50;99.90;;;;;;5116244;28;20047;-61
2022/05/30 02:28:15;;;;;;;4.00;1.88;;;16.50;99.90;;;;;;5115996;28;20486;-61
2022/05/30 02:30:41;;;;;;;1.75;1.52;;;16.50;99.90;;;;;;5116042;28;20027;-61
2022/05/30 02:38:35;;;;;;;2.30;1.70;;;16.50;99.90;;;;;;5116014;28;20466;-60
2022/05/30 02:41:01;;;;;;;2.50;1.90;;;16.50;99.90;;;;;;5115646;28;20047;-61
2022/05/30 02:43:27;;;;;;;1.60;1.50;;;16.50;99.90;;;;;;5115687;28;20024;-60
2022/05/30 02:45:52;;;;;;;2.45;1.65;;;16.60;99.90;;;;;;5115690;28;20019;-60
2022/05/30 02:48:18;;;;;;;2.85;1.60;;;16.50;99.90;;;;;;5115545;28;20443;-60
2022/05/30 02:50:45;;;;;;;1.67;1.58;;;16.60;99.90;;;;;;5115374;28;20019;-61
2022/05/30 02:53:11;;;;;;;2.45;1.60;;;16.60;99.90;;;;;;5115649;28;20028;-61
2022/05/30 02:55:37;;;;;;;1.98;1.45;;;16.50;99.90;;;;;;5115002;28;20036;-61
2022/05/30 02:58:03;;;;;;;2.47;1.63;;;16.50;99.90;;;;;;5115501;28;20024;-61
2022/05/30 03:00:29;;;;;;;4.32;1.88;;;16.60;99.90;;;;;;5115138;28;20096;-60
2022/05/30 03:02:55;;;;;;;2.40;1.65;;;16.60;99.90;;;;;;5115240;28;20099;-61
2022/05/30 03:05:21;;;;;;;3.80;1.50;;;16.60;99.90;;;;;;5114988;28;20080;-61
2022/05/30 03:07:47;;;;;;;3.65;1.70;;;16.60;99.90;;;;;;5096879;28;20024;-61
2022/05/30 03:10:12;;;;;;;1.30;1.20;;;16.50;99.90;;;;;;5114786;28;20023;-61
2022/05/30 03:12:38;;;;;;;2.03;1.50;;;16.50;99.90;;;;;;5115235;28;20038;-61
2022/05/30 03:15:04;;;;;;;4.28;2.17;;;16.50;99.90;;;;;;5115131;28;20026;-61
2022/05/30 03:17:30;;;;;;;2.80;1.50;;;16.50;99.90;;;;;;5115017;28;20023;-60
2022/05/30 03:19:56;;;;;;;3.47;2.97;;;16.60;99.90;;;;;;5114794;28;20482;-61
2022/05/30 03:22:22;;;;;;;3.70;2.75;;;16.50;99.90;;;;;;5115056;28;20425;-61
2022/05/30 03:24:47;;;;;;;6.75;3.65;;;16.20;99.90;;;;;;5114626;28;20020;-61
2022/05/30 03:27:13;;;;;;;2.90;2.28;;;16.10;99.90;;;;;;5114774;28;20122;-60
2022/05/30 03:29:39;;;;;;;3.83;1.70;;;16.10;99.90;;;;;;5114649;28;20031;-60
2022/05/30 03:32:05;;;;;;;2.03;1.38;;;16.20;99.90;;;;;;5114751;28;20057;-60
2022/05/30 03:34:31;;;;;;;3.30;1.98;;;16.30;99.90;;;;;;5114606;28;20012;-61
2022/05/30 03:36:56;;;;;;;2.25;1.88;;;16.40;99.90;;;;;;5114510;28;20024;-61
2022/05/30 03:39:22;;;;;;;3.00;2.53;;;16.40;99.90;;;;;;5114247;28;20077;-61
2022/05/30 03:41:48;;;;;;;2.85;1.77;;;16.30;99.90;;;;;;5114492;28;20462;-61
2022/05/30 03:44:14;;;;;;;2.20;1.60;;;16.20;99.90;;;;;;5114396;28;20110;-61
2022/05/30 03:46:39;;;;;;;3.05;1.60;;;16.20;99.90;;;;;;5114293;28;20020;-60
2022/05/30 03:49:05;;;;;;;1.88;1.42;;;16.20;99.90;;;;;;5114386;28;20070;-61
2022/05/30 03:51:32;;;;;;;2.42;1.35;;;16.30;99.90;;;;;;5114267;28;20020;-61
2022/05/30 03:53:58;;;;;;;3.80;1.33;;;16.30;99.90;;;;;;5114133;28;20397;-61
2022/05/30 03:56:24;;;;;;;1.60;1.30;;;16.40;99.90;;;;;;5114151;28;20047;-60
2022/05/30 03:58:50;;;;;;;3.47;1.88;;;16.40;99.90;;;;;;5114202;28;20032;-61
2022/05/30 04:01:15;;;;;;;3.65;1.75;;;16.40;99.90;;;;;;5114102;28;20031;-61
2022/05/30 04:03:41;;;;;;;2.28;1.50;;;16.40;99.90;;;;;;5114064;28;20380;-60
2022/05/30 04:06:08;;;;;;;2.70;1.50;;;16.40;99.90;;;;;;5114358;28;20415;-61
2022/05/30 04:08:34;;;;;;;1.60;1.50;;;16.40;99.90;;;;;;5113778;28;20550;-61
2022/05/30 04:10:59;;;;;;;2.13;1.48;;;16.40;99.90;;;;;;5114243;28;20028;-61
2022/05/30 04:13:25;;;;;;;2.85;1.98;;;16.40;99.90;;;;;;5114264;28;20024;-61
2022/05/30 04:15:51;;;;;;;3.80;2.53;;;16.30;99.90;;;;;;5113786;28;20055;-61
2022/05/30 04:18:17;;;;;;;1.88;1.58;;;16.30;99.90;;;;;;5114001;28;20051;-60
2022/05/30 04:20:46;;;;;;;2.75;1.73;;;16.30;99.90;;;;;;5113849;28;20079;-61
2022/05/30 04:23:12;;;;;;;3.00;1.88;;;16.40;99.90;;;;;;5113559;28;20059;-60
2022/05/30 04:25:38;;;;;;;3.63;1.70;;;16.30;99.90;;;;;;5114118;28;20054;-61
2022/05/30 04:28:04;;;;;;;3.00;1.88;;;16.40;99.90;;;;;;5114123;28;20423;-61
2022/05/30 04:30:30;;;;;;;1.77;1.67;;;16.40;99.90;;;;;;5113659;28;20030;-61
2022/05/30 04:32:56;;;;;;;3.08;1.80;;;16.40;99.90;;;;;;5113632;28;20106;-61
2022/05/30 04:35:22;;;;;;;2.83;1.65;;;16.40;99.90;;;;;;5113506;28;20020;-61
2022/05/30 04:37:49;;;;;;;2.63;1.90;;;16.30;99.90;;;;;;5113756;28;20026;-61
2022/05/30 04:40:18;;;;;;;3.55;2.47;;;16.30;99.90;;;;;;5113879;28;20051;-61
2022/05/30 04:42:45;;;;;;;4.50;2.22;;;16.10;99.90;;;;;;5113620;28;20363;-61
2022/05/30 04:45:12;;;;;;;4.72;2.13;;;16.10;99.90;;;;;;5113575;28;20028;-60
2022/05/30 04:47:39;;;;;;;4.65;2.70;;;16.10;99.90;;;;;;5113659;28;20424;-61
2022/05/30 04:50:07;;;;;;;3.80;2.28;;;16.20;99.90;;;;;;5113407;28;20027;-61
2022/05/30 04:52:33;;;;;;;3.08;2.20;;;16.20;99.90;;;;;;5113870;28;20024;-61
2022/05/30 04:54:59;;;;;;;5.00;2.95;;;16.30;99.90;;;;;;5113247;28;20028;-60
2022/05/30 04:57:25;;;;;;;5.68;4.00;;;16.30;99.90;;;;;;5113988;28;20052;-60
2022/05/30 04:59:51;;;;;;;4.22;2.95;;;16.30;99.90;;;;;;5115561;28;20120;-60
2022/05/30 05:02:17;;;;;;;3.38;2.80;;;16.00;99.90;;;;;;5117663;28;20398;-60
2022/05/30 05:04:43;;;;;;;7.00;4.70;;;16.00;99.90;;;;;;5117173;28;20023;-61
2022/05/30 05:07:09;;;;;;;4.13;2.92;;;16.00;99.90;;;;;;5117404;28;20110;-61
2022/05/30 05:09:40;;;;;;;2.83;2.20;;;15.90;99.90;;;;;;5117212;28;20169;-61
2022/05/30 05:12:06;;;;;;;3.47;2.45;;;16.00;99.90;;;;;;5117281;28;20028;-60
2022/05/30 05:14:32;;;;;;;4.65;3.60;;;16.20;99.90;;;;;;5116936;28;20077;-60
2022/05/30 05:16:58;;;;;;;2.78;2.53;;;16.10;99.90;;;;;;5116763;28;20058;-61
2022/05/30 05:19:24;;;;;;;3.00;2.70;;;16.10;99.90;;;;;;5116862;28;20427;-61
2022/05/30 05:21:50;;;;;;;3.45;3.10;;;16.20;99.90;;;;;;5116620;28;20115;-60
2022/05/30 05:24:17;;;;;;;7.30;5.00;;;16.30;99.90;;;;;;5115084;28;20027;-60
2022/05/30 05:26:45;;;;;;;3.92;3.55;;;16.30;99.90;;;;;;5114547;28;20027;-61
2022/05/30 05:29:11;;;;;;;5.05;3.85;;;16.30;99.90;;;;;;5114791;28;20051;-61
2022/05/30 05:31:38;;;;;;;8.43;5.75;;;16.30;99.90;;;;;;5115664;27;20477;-59
2022/05/30 05:34:06;;;;;;;6.03;5.30;;;16.20;99.90;;;;;;5121559;27;20602;-61
2022/05/30 05:36:38;;;;;;;5.72;4.03;;;15.90;99.90;;;;;;5119235;27;20031;-60
2022/05/30 05:39:05;;;;;;;4.30;3.67;;;15.80;99.90;;;;;;5127372;27;20106;-61
2022/05/30 05:41:31;;;;;;;6.88;3.78;;;16.00;99.90;;;;;;5124193;27;20031;-61
2022/05/30 05:43:57;;;;;;;6.30;4.25;;;16.10;99.90;;;;;;5120709;27;20055;-57
2022/05/30 05:46:26;;;;;;;3.38;2.92;;;16.30;99.90;;;;;;5125047;27;20031;-61
2022/05/30 05:48:53;;;;;;;3.25;2.72;;;16.30;99.90;;;;;;5131853;27;20019;-60
2022/05/30 05:51:19;;;;;;;3.20;2.88;;;16.40;99.90;;;;;;5128050;27;20358;-60
2022/05/30 05:53:46;;;;;;;4.22;3.25;;;16.50;99.90;;;;;;5118287;27;20367;-61
2022/05/30 05:56:17;;;;;;;3.95;3.33;;;16.60;99.90;;;;;;5131110;27;20051;-61
2022/05/30 05:58:43;;;;;;;3.53;3.22;;;16.60;99.90;;;;;;5138547;27;20492;-60
2022/05/30 06:01:11;;;;;;;6.35;4.82;;;16.70;99.90;;;;;;5136982;27;20030;-61
2022/05/30 06:03:36;;;;;;;5.13;3.75;;;16.60;99.90;;;;;;5127899;27;20026;-60
2022/05/30 06:06:03;;;;;;;4.32;3.30;;;16.40;99.90;;;;;;5122278;27;20119;-60
2022/05/30 06:08:29;;;;;;;4.05;3.60;;;16.50;99.90;;;;;;5153340;27;20029;-61
2022/05/30 06:11:11;;;;;;;4.72;3.65;;;16.50;99.90;;;;;;5123366;27;20035;-61
2022/05/30 06:13:41;;;;;;;3.90;2.90;;;16.60;99.90;;;;;;5114096;27;20035;-61
2022/05/30 06:16:10;;;;;;;5.13;3.75;;;16.70;99.90;;;;;;5118489;27;20106;-59
2022/05/30 06:18:35;;;;;;;7.05;5.32;;;16.80;99.90;;;;;;5111640;28;20023;-60
2022/05/30 06:21:02;;;;;;;6.50;5.22;;;16.80;99.90;;;;;;5120085;27;20493;-61
2022/05/30 06:23:28;;;;;;;7.35;6.03;;;16.90;99.90;;;;;;5126269;27;20029;-60
2022/05/30 06:25:54;;;;;;;7.25;5.28;;;16.60;99.90;;;;;;5132337;27;20031;-62
2022/05/30 06:28:20;;;;;;;4.78;3.70;;;16.50;99.90;;;;;;5133241;27;20099;-61
2022/05/30 06:30:45;;;;;;;5.93;4.25;;;16.60;99.90;;;;;;5134222;27;20407;-61
2022/05/30 06:33:11;;;;;;;5.13;4.43;;;16.70;99.90;;;;;;5133251;27;20031;-62
2022/05/30 06:35:42;;;;;;;3.53;3.22;;;16.80;99.90;;;;;;5134346;27;20031;-62
2022/05/30 06:38:09;;;;;;;3.60;3.30;;;16.80;99.90;;;;;;5125014;27;20440;-61
2022/05/30 06:40:35;;;;;;;4.35;3.50;;;16.90;99.90;;;;;;5123986;27;20096;-61
2022/05/30 06:43:01;;;;;;;4.40;3.50;;;17.00;99.90;;;;;;5123653;27;20035;-61
2022/05/30 06:45:27;;;;;;;5.18;3.63;;;17.10;99.90;;;;;;5115937;27;20501;-61
2022/05/30 06:47:53;;;;;;;4.65;3.22;;;17.20;99.90;;;;;;5117242;27;20062;-62
2022/05/30 06:50:19;;;;;;;3.70;3.30;;;17.30;99.90;;;;;;5118098;27;20129;-61
2022/05/30 06:52:45;;;;;;;3.65;3.20;;;17.40;99.90;;;;;;5120466;27;20027;-61
2022/05/30 06:55:14;;;;;;;4.90;4.40;;;17.50;99.90;;;;;;5118554;27;20038;-67
2022/05/30 07:00:25;;;;;;;7.38;5.38;;;17.60;99.90;;;;;;5122151;27;20095;-63
2022/05/30 07:02:51;;;;;;;6.57;4.78;;;17.50;99.90;;;;;;5119589;27;20023;-61
2022/05/30 07:05:25;;;;;;;11.02;7.65;;;17.50;99.90;;;;;;5120593;27;20033;-61
2022/05/30 07:07:58;;;;;;;5.60;5.10;;;17.60;99.90;;;;;;5113118;27;20022;-62
2022/05/30 07:10:27;;;;;;;5.15;4.65;;;17.50;99.90;;;;;;5117557;27;20030;-61
2022/05/30 07:12:52;;;;;;;6.13;4.93;;;17.60;99.90;;;;;;5126692;27;20103;-61
2022/05/30 07:15:19;;;;;;;4.90;3.95;;;17.70;99.90;;;;;;5128666;27;20472;-60
2022/05/30 07:17:45;;;;;;;4.20;3.80;;;17.80;99.90;;;;;;5121812;27;20031;-61
2022/05/30 07:20:12;;;;;;;4.45;3.80;;;17.80;99.90;;;;;;5119805;27;20074;-70
2022/05/30 07:22:38;;;;;;;4.70;3.75;;;17.80;99.90;;;;;;5124676;27;20026;-62
2022/05/30 07:25:04;;;;;;;5.55;4.07;;;17.90;99.90;;;;;;5126088;27;20397;-62
2022/05/30 07:27:30;;;;;;;5.82;4.75;;;17.90;99.90;;;;;;5108223;27;20393;-61
2022/05/30 07:29:55;;;;;;;5.50;4.13;;;18.00;99.90;;;;;;5126229;27;20096;-60
2022/05/30 07:32:21;;;;;;;5.38;4.00;;;18.00;99.90;;;;;;5115582;27;20117;-60
2022/05/30 07:34:47;;;;;;;5.57;4.80;;;18.00;99.90;;;;;;5112656;27;20535;-60
2022/05/30 07:37:13;;;;;;;8.07;5.50;;;18.00;99.90;;;;;;5122698;27;20367;-61
2022/05/30 07:39:39;;;;;;;5.63;5.13;;;18.00;99.90;;;;;;5126772;27;20743;-60
2022/05/30 07:42:06;;;;;;;5.68;5.18;;;18.00;99.90;;;;;;5122961;27;20031;-63
2022/05/30 07:44:33;;;;;;;9.88;8.55;;;18.00;99.90;;;;;;5121117;27;20031;-62
2022/05/30 07:46:59;;;;;;;6.82;6.07;;;17.90;99.90;;;;;;5103855;27;20031;-61
2022/05/30 07:49:26;;;;;;;7.93;6.70;;;17.80;99.90;;;;;;5113481;27;20042;-56
2022/05/30 07:51:52;;;;;;;6.45;5.78;;;17.80;99.90;;;;;;5105325;28;20024;-61
2022/05/30 07:54:17;;;;;;;6.95;6.25;;;17.80;99.90;;;;;;5127373;27;20034;-62
2022/05/30 07:56:45;;;;;;;11.82;9.13;;;17.90;99.90;;;;;;5125181;27;20050;-64
2022/05/30 07:59:11;;;;;;;9.93;7.80;;;18.00;99.90;;;;;;5093926;27;20050;-63
2022/05/30 08:01:38;;;;;;;7.65;6.85;;;17.80;99.90;;;;;;5106031;28;20044;-63
2022/05/30 08:04:04;;;;;;;6.55;5.65;;;17.70;99.90;;;;;;5124225;27;20027;-63
2022/05/30 08:06:30;;;;;;;10.38;8.13;;;17.80;99.90;;;;;;5108382;27;20448;-62
2022/05/30 08:08:57;;;;;;;6.35;5.75;;;17.80;99.90;;;;;;5127634;27;20027;-61
2022/05/30 08:11:23;;;;;;;6.70;5.57;;;17.80;99.90;;;;;;5127685;27;20020;-62
2022/05/30 08:13:50;;;;;;;7.47;5.65;;;17.90;99.90;;;;;;5127622;27;20024;-61
2022/05/30 08:16:20;;;;;;;6.75;5.93;;;18.10;99.90;;;;;;5120311;27;20027;-64
2022/05/30 08:18:46;;;;;;;7.28;5.75;;;18.10;99.90;;;;;;5126803;27;20031;-63
2022/05/30 08:21:15;;;;;;;7.63;6.30;;;18.20;99.90;;;;;;5128699;27;20076;-65
2022/05/30 08:23:41;;;;;;;7.00;5.80;;;18.20;99.90;;;;;;5129197;27;20088;-61
2022/05/30 08:26:07;;;;;;;14.18;7.28;;;18.30;99.90;;;;;;5129969;27;20011;-62
2022/05/30 08:28:33;;;;;;;14.18;8.40;;;18.50;99.90;;;;;;5130417;27;20423;-63
2022/05/30 08:30:59;;;;;;;8.73;7.82;;;18.30;99.90;;;;;;5132604;27;20076;-63
2022/05/30 08:33:25;;;;;;;9.23;7.60;;;18.30;99.90;;;;;;5131450;27;20019;-63
2022/05/30 08:36:12;;;;;;;7.68;6.05;;;18.30;99.90;;;;;;5131641;27;20114;-60
2022/05/30 08:38:39;;;;;;;13.10;8.23;;;18.40;99.90;;;;;;5104721;28;20546;-62
2022/05/30 08:44:01;;;;;;;9.00;6.88;;;18.50;99.90;;;;;;5125298;28;20385;-62
2022/05/30 08:46:39;;;;;;;9.93;7.28;;;18.60;99.90;;;;;;5128936;28;20029;-60
2022/05/30 08:49:14;;;;;;;9.45;7.25;;;18.70;99.90;;;;;;5131521;28;20034;-62
2022/05/30 08:51:45;;;;;;;7.00;6.32;;;18.80;99.90;;;;;;5131577;28;20098;-62
2022/05/30 08:54:22;;;;;;;9.70;7.78;;;18.80;99.90;;;;;;5131263;28;20032;-63
2022/05/30 08:56:52;;;;;;;7.13;6.43;;;18.90;99.90;;;;;;5120741;28;20498;-60
2022/05/30 08:59:23;;;;;;;11.63;9.02;;;19.00;99.90;;;;;;5127649;28;20167;-62
2022/05/30 09:01:55;;;;;;;9.57;7.30;;;19.10;99.90;;;;;;5124366;27;20018;-60
2022/05/30 09:04:30;;;;;;;11.60;9.23;;;19.20;99.90;;;;;;5121275;27;20022;-62
2022/05/30 09:06:57;;;;;;;11.35;10.18;;;19.30;99.90;;;;;;5140537;27;20054;-60
2022/05/30 09:09:36;;;;;;;8.63;7.45;;;19.30;99.90;;;;;;5117653;27;20027;-61
2022/05/30 09:12:14;;;;;;;9.07;7.20;;;19.40;99.90;;;;;;5123681;27;20506;-63
2022/05/30 09:14:51;;;;;;;12.23;8.95;;;19.40;99.90;;;;;;5122231;28;20442;-65
2022/05/30 09:17:41;;;;;;;8.93;8.05;;;19.20;99.90;;;;;;5116308;28;20019;-62
2022/05/30 09:20:11;;;;;;;8.85;7.95;;;18.80;99.90;;;;;;5111168;28;20134;-62
2022/05/30 09:22:38;;;;;;;8.98;6.88;;;18.70;99.90;;;;;;5115630;28;20039;-60
2022/05/30 09:27:49;;;;;;;7.88;6.80;;;18.90;99.90;;;;;;5112612;28;20038;-61
2022/05/30 09:30:21;;;;;;;8.90;7.25;;;19.00;99.90;;;;;;5111250;28;20028;-60
2022/05/30 09:32:58;;;;;;;7.57;6.88;;;19.00;99.90;;;;;;5112516;28;20094;-61
2022/05/30 09:35:34;;;;;;;9.63;7.40;;;18.80;99.90;;;;;;5110755;28;20023;-63
2022/05/30 09:38:17;;;;;;;8.25;6.50;;;18.80;99.90;;;;;;5112592;28;20415;-61
2022/05/30 09:40:55;;;;;;;8.80;7.43;;;18.70;99.90;;;;;;5118061;28;20131;-61
2022/05/30 09:43:51;;;;;;;6.20;5.55;;;18.60;99.90;;;;;;5128401;28;20076;-60
2022/05/30 09:46:21;;;;;;;6.47;5.65;;;18.50;99.90;;;;;;5134888;27;20019;-60
2022/05/30 09:49:04;;;;;;;6.25;5.50;;;18.40;99.90;;;;;;5136478;27;20416;-61
2022/05/30 09:51:31;;;;;;;;;;;18.40;99.90;;;;;;5136748;27;20047;-61
2022/05/30 09:53:57;;;;;;;7.57;5.78;;;18.50;99.90;;;;;;5115635;27;19904;-63
2022/05/30 09:56:23;;;;;;;5.72;4.95;;;18.50;99.90;;;;;;5133537;27;20127;-60
2022/05/30 09:59:21;;;;;;;6.38;5.50;;;18.60;99.90;;;;;;5133215;27;20512;-60
2022/05/30 10:01:52;;;;;;;8.73;6.65;;;18.50;99.90;;;;;;5123001;27;20031;-60
2022/05/30 10:04:41;;;;;;;5.93;4.95;;;18.60;99.90;;;;;;5133343;27;20017;-62
2022/05/30 10:07:16;;;;;;;6.32;5.07;;;18.80;99.90;;;;;;5134290;27;20114;-61
2022/05/30 10:09:51;;;;;;;6.70;5.50;;;19.00;99.90;;;;;;5134700;27;20023;-60
2022/05/30 10:12:42;;;;;;;5.38;4.88;;;19.10;99.90;;;;;;5132758;27;20027;-60
2022/05/30 10:15:23;;;;;;;6.55;3.92;;;19.00;99.90;;;;;;5115423;27;20023;-62
2022/05/30 10:17:50;;;;;;;4.97;4.30;;;19.10;99.90;;;;;;5135053;27;20022;-61
2022/05/30 10:20:31;;;;;;;7.97;5.72;;;19.20;99.90;;;;;;5136132;27;20023;-63
2022/05/30 10:30:01;;;;;;;7.00;6.15;;;19.00;99.90;;;;;;5126077;27;20182;-58
2022/05/30 10:32:32;;;;;;;8.23;5.65;;;19.00;99.90;;;;;;5126373;27;20110;-63
2022/05/30 10:35:31;;;;;;;7.00;6.07;;;18.90;99.90;;;;;;5132328;27;20031;-64
2022/05/30 10:38:12;;;;;;;5.95;5.40;;;18.50;99.90;;;;;;5094931;27;20036;-58
2022/05/30 10:40:57;;;;;;;5.35;4.85;;;18.40;99.90;;;;;;5124048;27;20088;-61
2022/05/30 10:43:24;;;;;;;6.00;5.28;;;18.40;99.90;;;;;;5125070;27;20031;-61
2022/05/30 10:45:49;;;;;;;7.40;5.57;;;18.40;99.90;;;;;;5132830;27;20031;-62
2022/05/30 10:48:36;;;;;;;5.10;4.60;;;18.40;99.90;;;;;;5134620;27;20026;-61
2022/05/30 10:51:28;;;;;;;7.50;6.05;;;18.40;99.90;;;;;;5130791;27;20027;-60
2022/05/30 10:54:19;;;;;;;4.78;4.28;;;18.20;99.90;;;;;;5123266;27;20062;-62
2022/05/30 10:56:50;;;;;;;4.97;4.47;;;18.10;99.90;;;;;;5111387;28;20040;-58
2022/05/30 10:59:32;;;;;;;7.28;5.50;;;18.10;99.90;;;;;;5121318;27;20023;-59
2022/05/30 11:02:14;;;;;;;5.75;4.70;;;18.10;99.90;;;;;;5111354;28;20329;-58
2022/05/30 11:05:10;;;;;;;4.50;3.60;;;18.00;99.90;;;;;;5125301;27;20102;-61
2022/05/30 11:07:36;;;;;;;4.55;4.15;;;18.20;99.90;;;;;;5097370;27;20292;-61
2022/05/30 11:10:09;;;;;;;6.00;4.20;;;18.30;99.90;;;;;;5130125;27;20422;-60
2022/05/30 11:12:45;;;;;;;5.65;3.88;;;18.40;99.90;;;;;;5115627;27;20023;-57
2022/05/30 11:15:31;;;;;;;4.15;3.47;;;18.50;99.90;;;;;;5110140;27;20114;-58
2022/05/30 11:18:20;;;;;;;7.78;6.00;;;18.60;99.90;;;;;;5122603;27;20047;-58
2022/05/30 11:21:17;;;;;;;6.50;4.35;;;18.50;99.90;;;;;;5121983;27;20031;-53
2022/05/30 11:23:43;;;;;;;5.68;3.97;;;18.30;99.90;;;;;;5107139;27;20523;-60
2022/05/30 11:26:34;;;;;;;6.47;5.85;;;18.30;99.90;;;;;;5126849;27;20508;-61
2022/05/30 11:29:31;;;;;;;7.20;4.68;;;18.40;99.90;;;;;;5118010;27;20034;-56
2022/05/30 11:32:06;;;;;;;5.95;4.63;;;18.30;99.90;;;;;;5109147;28;20012;-55
2022/05/30 11:34:44;;;;;;;5.35;3.92;;;18.20;99.90;;;;;;5109666;27;20026;-55
2022/05/30 11:37:29;;;;;;;6.15;4.70;;;18.30;99.90;;;;;;5106493;27;20050;-52
2022/05/30 11:40:10;;;;;;;5.78;5.00;;;18.30;99.90;;;;;;5114540;27;20394;-57
2022/05/30 11:42:38;;;;;;;5.80;4.18;;;18.20;99.90;;;;;;5111307;28;20034;-58
2022/05/30 11:45:35;;;;;;;7.15;5.50;;;18.30;99.90;;;;;;5115566;27;20029;-56
2022/05/30 11:48:00;;;;;;;6.40;5.60;;;18.30;99.90;;;;;;5119287;27;20427;-59
2022/05/30 11:50:36;;;;;;;6.38;4.97;;;18.20;99.90;;;;;;5112897;28;20016;-59
2022/05/30 11:53:38;;;;;;;8.55;5.82;;;18.30;99.90;;;;;;5114322;27;20069;-60
2022/05/30 11:56:15;;;;;;;5.05;4.53;;;18.30;99.90;;;;;;5134644;27;20131;-58
2022/05/30 11:59:06;;;;;;;5.90;4.60;;;18.30;99.90;;;;;;5134600;27;20023;-56
2022/05/30 12:01:36;;;;;;;7.97;6.15;;;18.40;99.90;;;;;;5127901;27;20156;-55
2022/05/30 12:04:18;;;;;;;5.90;5.30;;;18.40;99.90;;;;;;5112107;28;20076;-59
2022/05/30 12:07:41;;;;;;;9.23;7.88;;;18.30;99.90;;;;;;5113899;28;20065;-54
2022/05/30 12:10:24;;;;;;;6.85;6.05;;;18.50;99.90;;;;;;5051377;28;20268;-56
2022/05/30 12:13:05;;;;;;;7.60;5.85;;;18.40;99.90;;;;;;5071283;28;20070;-55
2022/05/30 12:15:48;;;;;;;6.53;5.78;;;18.50;99.90;;;;;;5098799;28;20050;-57
2022/05/30 12:24:22;;;;;;;7.15;6.10;;;18.30;99.90;;;;;;5112234;28;20043;-57
2022/05/30 12:26:55;;;;;;;6.70;5.95;;;18.30;99.90;;;;;;5109345;28;20164;-55
2022/05/30 12:29:30;;;;;;;6.80;5.75;;;18.40;99.90;;;;;;5108661;28;20019;-53
2022/05/30 12:32:16;;;;;;;7.00;6.30;;;18.50;99.90;;;;;;5110354;28;20050;-56
2022/05/30 12:35:10;;;;;;;11.10;8.63;;;18.60;99.90;;;;;;5119084;27;20027;-58
2022/05/30 12:37:44;;;;;;;10.38;9.35;;;18.50;99.90;;;;;;5112019;28;20028;-56
2022/05/30 12:40:19;;;;;;;8.00;7.18;;;18.60;99.90;;;;;;5113566;28;20036;-57
2022/05/30 12:42:45;;;;;;;8.60;7.05;;;18.70;99.90;;;;;;5112936;28;20431;-54
2022/05/30 12:45:37;;;;;;;8.68;6.90;;;18.80;99.90;;;;;;5111930;28;20051;-52
2022/05/30 12:48:20;;;;;;;10.25;7.85;;;18.90;99.90;;;;;;5084168;28;20028;-55
2022/05/30 12:50:51;;;;;;;8.95;8.02;;;19.10;99.90;;;;;;5112339;28;20034;-60
2022/05/30 12:53:19;;;;;;;8.63;7.53;;;19.10;99.90;;;;;;5111495;28;20044;-57
2022/05/30 12:55:48;;;;;;;10.73;8.50;;;19.10;99.90;;;;;;5110559;28;20443;-58
2022/05/30 12:58:33;;;;;;;9.80;7.93;;;19.10;99.90;;;;;;5110763;28;20094;-56
2022/05/30 13:01:11;;;;;;;11.73;9.30;;;19.20;99.90;;;;;;5108948;28;20031;-60
2022/05/30 13:03:44;;;;;;;10.38;7.43;;;19.30;99.90;;;;;;5110785;28;20024;-57
2022/05/30 13:06:21;;;;;;;10.20;8.68;;;19.30;99.90;;;;;;5111453;28;20028;-57
2022/05/30 13:09:03;;;;;;;8.23;7.35;;;19.30;99.90;;;;;;5112803;28;20038;-57
2022/05/30 13:11:32;;;;;;;10.95;9.60;;;19.40;99.90;;;;;;5113194;28;20027;-59
2022/05/30 13:14:13;;;;;;;8.98;8.02;;;19.40;99.90;;;;;;5113441;28;20024;-60
2022/05/30 13:16:42;;;;;;;9.52;7.47;;;19.50;99.90;;;;;;5113606;28;20024;-54
2022/05/30 13:19:13;;;;;;;9.43;8.40;;;19.60;99.90;;;;;;5113281;28;20035;-56
2022/05/30 13:21:42;;;;;;;10.25;8.65;;;19.70;99.90;;;;;;5117096;28;20051;-59
2022/05/30 13:24:27;;;;;;;8.77;7.88;;;19.90;99.90;;;;;;5117204;28;20015;-54
2022/05/30 13:26:54;;;;;;;8.80;7.72;;;20.20;99.90;;;;;;5117183;28;20027;-57
2022/05/30 13:29:20;;;;;;;7.70;6.75;;;20.40;99.90;;;;;;5117145;28;20056;-55
2022/05/30 13:31:49;;;;;;;11.05;8.13;;;20.60;99.90;;;;;;5117497;28;20039;-59
2022/05/30 13:34:21;;;;;;;12.93;9.85;;;20.80;99.90;;;;;;5117029;28;20414;-57
2022/05/30 13:36:49;;;;;;;11.13;9.00;;;20.80;99.90;;;;;;5116935;28;20098;-59